createdAt,value
2022-11-02T00:01:55.785Z,94.70
2022-11-02T00:04:22.759Z,94.70
2022-11-02T00:06:49.625Z,94.70
2022-11-02T00:09:16.507Z,94.70
2022-11-02T00:11:43.434Z,94.70
2022-11-02T00:14:10.306Z,94.70
2022-11-02T00:16:39.971Z,94.80
2022-11-02T00:19:08.290Z,94.80
2022-11-02T00:21:36.762Z,94.80
2022-11-02T00:24:05.834Z,94.80
2022-11-02T00:26:35.471Z,94.80
2022-11-02T00:29:04.548Z,94.80
2022-11-02T00:31:31.861Z,94.80
2022-11-02T00:33:58.745Z,95.10
2022-11-02T00:36:25.655Z,94.80
2022-11-02T00:38:52.534Z,94.70
2022-11-02T00:41:20.249Z,94.70
2022-11-02T00:43:47.367Z,94.70
2022-11-02T00:46:14.934Z,94.70
2022-11-02T00:48:42.246Z,94.80
2022-11-02T00:51:10.035Z,94.70
2022-11-02T00:53:37.032Z,94.70
2022-11-02T00:56:03.975Z,94.60
2022-11-02T00:58:30.868Z,94.70
2022-11-02T01:00:57.905Z,94.70
2022-11-02T01:03:25.916Z,94.70
2022-11-02T01:05:52.812Z,94.70
2022-11-02T01:08:19.718Z,95.00
2022-11-02T01:10:48.329Z,94.70
2022-11-02T01:13:16.910Z,94.70
2022-11-02T01:15:43.827Z,94.70
2022-11-02T01:18:10.712Z,94.80
2022-11-02T01:20:37.607Z,94.80
2022-11-02T01:23:04.522Z,94.80
2022-11-02T01:25:31.411Z,94.80
2022-11-02T01:27:58.289Z,94.80
2022-11-02T01:30:25.203Z,94.90
2022-11-02T01:32:52.111Z,94.90
2022-11-02T01:35:20.215Z,95.00
2022-11-02T01:37:47.094Z,95.00
2022-11-02T01:40:14.086Z,95.00
2022-11-02T01:42:41.026Z,95.00
2022-11-02T01:45:09.518Z,95.00
2022-11-02T01:47:39.275Z,95.10
2022-11-02T01:50:16.510Z,95.10
2022-11-02T01:52:43.472Z,95.20
2022-11-02T01:55:12.551Z,95.20
2022-11-02T01:57:43.588Z,95.20
2022-11-02T02:00:15.810Z,95.20
2022-11-02T02:03:07.422Z,95.20
2022-11-02T02:05:40.293Z,95.30
2022-11-02T02:08:09.895Z,95.20
2022-11-02T02:10:36.927Z,95.20
2022-11-02T02:13:07.306Z,95.20
2022-11-02T02:15:56.248Z,95.20
2022-11-02T02:18:48.866Z,95.20
2022-11-02T02:22:15.647Z,95.20
2022-11-02T02:25:19.237Z,95.20
2022-11-02T02:28:26.219Z,95.10
2022-11-02T02:31:03.257Z,95.10
2022-11-02T02:34:10.620Z,95.10
2022-11-02T02:37:04.094Z,95.10
2022-11-02T02:39:42.005Z,95.30
2022-11-02T02:42:23.397Z,95.10
2022-11-02T02:45:17.006Z,95.30
2022-11-02T02:47:52.790Z,95.40
2022-11-02T02:50:29.835Z,95.40
2022-11-02T02:52:59.627Z,95.40
2022-11-02T02:55:33.134Z,95.40
2022-11-02T02:58:02.745Z,95.40
2022-11-02T03:00:31.501Z,95.40
2022-11-02T03:03:03.043Z,95.30
2022-11-02T03:05:35.157Z,95.20
2022-11-02T03:08:11.742Z,95.20
2022-11-02T03:10:56.851Z,95.20
2022-11-02T03:13:48.299Z,95.20
2022-11-02T03:16:49.455Z,95.20
2022-11-02T03:19:43.879Z,95.10
2022-11-02T03:22:31.313Z,95.20
2022-11-02T03:25:13.867Z,95.20
2022-11-02T03:28:27.318Z,95.20
2022-11-02T03:31:11.801Z,95.20
2022-11-02T03:33:53.988Z,95.20
2022-11-02T03:36:31.850Z,95.40
2022-11-02T03:39:08.798Z,95.30
2022-11-02T03:41:43.540Z,95.40
2022-11-02T03:44:21.604Z,95.40
2022-11-02T03:46:51.598Z,95.50
2022-11-02T03:49:20.320Z,95.50
2022-11-02T03:51:50.018Z,95.50
2022-11-02T03:54:33.475Z,95.50
2022-11-02T03:59:32.559Z,95.60
2022-11-02T04:02:00.960Z,95.60
2022-11-02T04:04:29.259Z,95.70
2022-11-02T04:06:57.081Z,95.80
2022-11-02T04:09:24.499Z,95.90
2022-11-02T04:12:09.962Z,95.90
2022-11-02T04:14:41.444Z,95.90
2022-11-02T04:20:08.903Z,96.00
2022-11-02T04:22:54.378Z,96.00
2022-11-02T04:25:21.721Z,95.90
2022-11-02T04:28:14.838Z,96.00
2022-11-02T04:31:00.709Z,96.00
2022-11-02T04:33:35.128Z,96.00
2022-11-02T04:36:08.043Z,96.00
2022-11-02T04:38:41.887Z,96.00
2022-11-02T04:41:42.399Z,96.00
2022-11-02T04:44:15.847Z,96.00
2022-11-02T04:46:46.105Z,96.00
2022-11-02T04:49:15.004Z,96.00
2022-11-02T04:51:48.767Z,96.00
2022-11-02T04:54:18.777Z,96.00
2022-11-02T04:56:48.970Z,96.00
2022-11-02T04:59:16.665Z,96.00
2022-11-02T05:01:43.822Z,96.00
2022-11-02T05:04:11.170Z,96.10
2022-11-02T05:06:39.450Z,96.10
2022-11-02T05:09:06.406Z,96.00
2022-11-02T05:11:34.341Z,96.00
2022-11-02T05:14:01.932Z,96.00
2022-11-02T05:16:29.636Z,95.90
2022-11-02T05:18:57.868Z,95.90
2022-11-02T05:21:25.657Z,95.80
2022-11-02T05:23:54.750Z,95.80
2022-11-02T05:26:22.419Z,95.70
2022-11-02T05:28:52.589Z,95.70
2022-11-02T05:31:20.370Z,95.70
2022-11-02T05:33:48.814Z,95.60
2022-11-02T05:36:19.569Z,95.70
2022-11-02T05:38:55.913Z,95.70
2022-11-02T05:41:23.854Z,95.70
2022-11-02T05:43:53.742Z,95.70
2022-11-02T05:46:22.275Z,95.70
2022-11-02T05:48:49.147Z,95.60
2022-11-02T05:51:16.008Z,95.70
2022-11-02T05:53:42.882Z,95.70
2022-11-02T05:56:11.542Z,95.70
2022-11-02T05:58:38.462Z,95.70
2022-11-02T06:01:07.659Z,96.10
2022-11-02T06:03:34.995Z,95.80
2022-11-02T06:06:09.231Z,95.80
2022-11-02T06:08:37.924Z,95.80
2022-11-02T06:11:10.747Z,95.90
2022-11-02T06:13:38.004Z,95.80
2022-11-02T06:16:09.479Z,95.80
2022-11-02T06:18:37.792Z,95.80
2022-11-02T06:21:05.231Z,95.80
2022-11-02T06:23:32.093Z,95.80
2022-11-02T06:26:00.915Z,95.70
2022-11-02T06:28:28.481Z,95.80
2022-11-02T06:30:56.110Z,95.80
2022-11-02T06:33:23.550Z,96.10
2022-11-02T06:35:53.172Z,95.80
2022-11-02T06:38:20.643Z,95.70
2022-11-02T06:41:00.177Z,95.80
2022-11-02T06:43:27.091Z,95.60
2022-11-02T06:45:58.338Z,95.60
2022-11-02T06:48:32.991Z,95.60
2022-11-02T06:51:02.495Z,95.60
2022-11-02T06:53:29.410Z,95.60
2022-11-02T06:55:58.274Z,95.50
2022-11-02T06:58:26.128Z,95.70
2022-11-02T07:01:07.164Z,95.50
2022-11-02T07:03:34.975Z,95.60
2022-11-02T07:06:02.352Z,95.60
2022-11-02T07:08:29.629Z,95.50
2022-11-02T07:10:57.218Z,95.50
2022-11-02T07:13:24.110Z,95.50
2022-11-02T07:15:55.059Z,95.50
2022-11-02T07:18:22.722Z,95.40
2022-11-02T07:20:49.733Z,95.40
2022-11-02T07:23:16.625Z,95.20
2022-11-02T07:25:43.497Z,94.90
2022-11-02T07:28:10.413Z,94.90
2022-11-02T07:30:37.286Z,94.80
2022-11-02T07:33:04.641Z,94.70
2022-11-02T07:35:31.860Z,94.70
2022-11-02T07:38:07.054Z,94.60
2022-11-02T07:40:36.154Z,94.70
2022-11-02T07:43:03.783Z,94.70
2022-11-02T07:45:38.579Z,94.50
2022-11-02T07:48:05.511Z,94.50
2022-11-02T07:50:32.389Z,94.20
2022-11-02T07:52:59.351Z,94.20
2022-11-02T07:55:29.575Z,94.00
2022-11-02T07:57:58.151Z,93.90
2022-11-02T08:00:30.213Z,93.80
2022-11-02T08:02:59.672Z,93.90
2022-11-02T08:05:28.010Z,94.00
2022-11-02T08:08:03.203Z,93.90
2022-11-02T08:10:35.491Z,93.80
2022-11-02T08:13:08.969Z,93.80
2022-11-02T08:15:36.456Z,93.70
2022-11-02T08:18:19.106Z,93.70
2022-11-02T08:20:47.655Z,93.70
2022-11-02T08:23:16.681Z,94.20
2022-11-02T08:25:45.740Z,93.50
2022-11-02T08:28:17.315Z,93.40
2022-11-02T08:30:44.275Z,93.30
2022-11-02T08:33:15.474Z,93.40
2022-11-02T08:35:44.339Z,93.40
2022-11-02T08:38:11.838Z,93.60
2022-11-02T08:40:39.433Z,93.50
2022-11-02T08:43:14.463Z,93.40
2022-11-02T08:48:31.881Z,93.40
2022-11-02T08:50:58.799Z,93.50
2022-11-02T08:53:25.674Z,93.60
2022-11-02T08:55:52.565Z,93.50
2022-11-02T08:58:19.883Z,93.40
2022-11-02T09:00:46.781Z,93.40
2022-11-02T09:03:15.770Z,93.20
2022-11-02T09:05:45.434Z,93.30
2022-11-02T09:08:20.627Z,93.00
2022-11-02T09:10:52.536Z,93.00
2022-11-02T09:13:25.261Z,93.00
2022-11-02T09:15:58.405Z,93.00
2022-11-02T09:18:25.321Z,92.60
2022-11-02T09:20:52.213Z,92.80
2022-11-02T09:23:23.315Z,92.60
2022-11-02T09:25:50.522Z,92.50
2022-11-02T09:28:17.754Z,92.50
2022-11-02T09:30:44.763Z,92.50
2022-11-02T09:33:13.399Z,92.30
2022-11-02T09:35:46.923Z,92.40
2022-11-02T09:38:14.678Z,92.40
2022-11-02T09:41:12.388Z,92.40
2022-11-02T09:44:07.431Z,92.50
2022-11-02T09:46:40.233Z,92.20
2022-11-02T09:49:23.638Z,92.50
2022-11-02T09:51:59.171Z,92.40
2022-11-02T09:54:50.631Z,92.20
2022-11-02T09:57:30.702Z,92.00
2022-11-02T09:59:57.950Z,91.60
2022-11-02T10:02:33.208Z,91.70
2022-11-02T10:05:30.601Z,91.20
2022-11-02T10:08:22.244Z,90.60
2022-11-02T10:11:26.748Z,91.30
2022-11-02T10:14:02.578Z,90.60
2022-11-02T10:16:46.582Z,90.70
2022-11-02T10:19:19.731Z,90.30
2022-11-02T10:21:51.343Z,90.20
2022-11-02T10:24:37.310Z,90.40
2022-11-02T10:27:26.661Z,90.00
2022-11-02T10:30:18.277Z,90.30
2022-11-02T10:32:48.141Z,90.00
2022-11-02T10:36:19.502Z,89.80
2022-11-02T10:39:10.647Z,89.00
2022-11-02T10:42:04.241Z,88.40
2022-11-02T10:45:08.555Z,88.40
2022-11-02T10:48:07.956Z,88.40
2022-11-02T10:51:05.576Z,88.20
2022-11-02T10:53:41.796Z,88.10
2022-11-02T10:56:32.463Z,87.40
2022-11-02T10:59:03.174Z,87.30
2022-11-02T11:01:32.488Z,87.70
2022-11-02T11:04:21.143Z,87.60
2022-11-02T11:06:48.230Z,87.20
2022-11-02T11:09:27.070Z,86.90
2022-11-02T11:12:03.738Z,87.00
2022-11-02T11:20:38.722Z,85.10
2022-11-02T11:23:22.940Z,85.00
2022-11-02T11:26:06.725Z,85.10
2022-11-02T11:28:40.978Z,84.40
2022-11-02T11:31:16.715Z,84.60
2022-11-02T11:33:54.034Z,84.40
2022-11-02T11:36:33.639Z,84.90
2022-11-02T11:39:29.432Z,84.70
2022-11-02T11:41:57.122Z,83.90
2022-11-02T11:44:24.267Z,84.30
2022-11-02T11:46:56.883Z,84.10
2022-11-02T11:49:41.981Z,83.50
2022-11-02T11:52:32.133Z,84.00
2022-11-02T11:55:24.899Z,82.60
2022-11-02T11:58:21.762Z,82.40
2022-11-02T12:01:18.122Z,82.40
2022-11-02T12:03:56.567Z,82.70
2022-11-02T12:06:53.293Z,83.10
2022-11-02T12:09:40.737Z,83.00
2022-11-02T12:12:38.426Z,83.10
2022-11-02T12:15:38.783Z,83.00
2022-11-02T12:18:39.188Z,82.80
2022-11-02T12:21:39.051Z,82.50
2022-11-02T12:24:35.612Z,82.80
2022-11-02T12:27:31.896Z,82.70
2022-11-02T12:30:12.587Z,82.20
2022-11-02T12:33:01.999Z,82.80
2022-11-02T12:35:50.470Z,82.90
2022-11-02T12:38:35.807Z,82.30
2022-11-02T12:41:08.117Z,82.10
2022-11-02T12:43:50.715Z,82.40
2022-11-02T12:46:48.719Z,82.50
2022-11-02T12:49:47.917Z,82.40
2022-11-02T12:53:00.157Z,82.80
2022-11-02T12:55:41.357Z,82.90
2022-11-02T12:58:23.657Z,85.60
2022-11-02T13:00:57.245Z,83.20
2022-11-02T13:03:59.766Z,85.00
2022-11-02T13:06:44.466Z,86.90
2022-11-02T13:09:37.004Z,88.90
2022-11-02T13:12:16.895Z,88.80
2022-11-02T13:14:50.410Z,89.60
2022-11-02T13:17:35.038Z,90.10
2022-11-02T13:20:13.299Z,90.70
2022-11-02T13:22:41.280Z,91.00
2022-11-02T13:25:27.232Z,90.90
2022-11-02T13:28:04.216Z,91.50
2022-11-02T13:30:33.677Z,91.30
2022-11-02T13:33:17.414Z,91.40
2022-11-02T13:35:46.116Z,91.30
2022-11-02T13:38:12.850Z,90.80
2022-11-02T13:40:48.913Z,91.00
2022-11-02T13:44:09.653Z,90.80
2022-11-02T13:46:53.372Z,90.30
2022-11-02T13:49:34.716Z,90.80
2022-11-02T13:52:10.682Z,90.60
2022-11-02T13:54:48.971Z,90.70
2022-11-02T13:57:38.709Z,90.80
2022-11-02T14:00:28.663Z,91.10
2022-11-02T14:03:11.421Z,91.10
2022-11-02T14:05:51.801Z,91.60
2022-11-02T14:08:41.099Z,91.60
2022-11-02T14:11:11.003Z,92.00
2022-11-02T14:13:56.161Z,91.70
2022-11-02T14:16:50.586Z,91.80
2022-11-02T14:19:34.513Z,91.90
2022-11-02T14:22:01.253Z,91.80
2022-11-02T14:24:34.041Z,91.60
2022-11-02T14:27:04.731Z,91.50
2022-11-02T14:29:44.898Z,91.50
2022-11-02T14:32:20.596Z,91.40
2022-11-02T14:35:10.308Z,91.00
2022-11-02T14:38:00.241Z,90.80
2022-11-02T14:41:10.467Z,90.80
2022-11-02T14:44:16.634Z,91.00
2022-11-02T14:47:01.346Z,90.90
2022-11-02T14:49:39.048Z,91.00
2022-11-02T14:52:30.478Z,91.20
2022-11-02T14:55:18.988Z,91.10
2022-11-02T14:57:56.961Z,91.30
2022-11-02T15:00:49.137Z,91.50
2022-11-02T15:03:25.196Z,91.30
2022-11-02T15:06:10.871Z,91.80
2022-11-02T15:08:53.183Z,91.60
2022-11-02T15:11:41.839Z,91.80
2022-11-02T15:14:36.796Z,91.90
2022-11-02T15:17:15.469Z,91.90
2022-11-02T15:19:47.478Z,91.80
2022-11-02T15:22:31.622Z,92.00
2022-11-02T15:25:14.021Z,92.20
2022-11-02T15:27:43.836Z,92.20
2022-11-02T15:30:16.475Z,92.20
2022-11-02T15:33:02.007Z,92.30
2022-11-02T15:35:37.486Z,92.40
2022-11-02T15:38:29.509Z,92.50
2022-11-02T15:41:17.068Z,92.60
2022-11-02T15:44:08.445Z,92.70
2022-11-02T15:47:24.345Z,92.70
2022-11-02T15:50:24.510Z,92.90
2022-11-02T15:53:28.347Z,92.90
2022-11-02T15:56:43.670Z,92.90
2022-11-02T15:59:38.418Z,93.00
2022-11-02T16:02:27.287Z,93.00
2022-11-02T16:04:58.186Z,92.90
2022-11-02T16:07:33.240Z,93.00
2022-11-02T16:10:21.334Z,92.90
2022-11-02T16:12:59.777Z,93.00
2022-11-02T16:15:27.421Z,93.10
2022-11-02T16:17:54.976Z,93.00
2022-11-02T16:20:29.303Z,93.10
2022-11-02T16:23:05.130Z,93.10
2022-11-02T16:25:46.070Z,93.30
2022-11-02T16:28:21.214Z,93.20
2022-11-02T16:31:19.244Z,93.10
2022-11-02T16:33:58.765Z,93.30
2022-11-02T16:36:36.050Z,93.00
2022-11-02T16:39:16.807Z,92.80
2022-11-02T16:41:52.452Z,92.70
2022-11-02T16:44:27.904Z,92.70
2022-11-02T16:47:00.940Z,92.70
2022-11-02T16:49:29.009Z,92.70
2022-11-02T16:51:59.112Z,92.60
2022-11-02T16:54:27.118Z,92.50
2022-11-02T16:56:57.377Z,92.50
2022-11-02T16:59:25.458Z,92.50
2022-11-02T17:01:59.957Z,92.20
2022-11-02T17:04:30.878Z,92.20
2022-11-02T17:07:30.680Z,92.10
2022-11-02T17:09:59.662Z,92.10
2022-11-02T17:12:38.158Z,92.00
2022-11-02T17:15:17.093Z,92.00
2022-11-02T17:17:44.173Z,92.00
2022-11-02T17:20:11.621Z,92.10
2022-11-02T17:22:56.958Z,92.20
2022-11-02T17:25:31.807Z,92.20
2022-11-02T17:28:01.728Z,92.60
2022-11-02T17:30:34.512Z,92.20
2022-11-02T17:33:25.230Z,92.40
2022-11-02T17:35:55.658Z,92.40
2022-11-02T17:38:26.709Z,92.40
2022-11-02T17:40:54.554Z,92.50
2022-11-02T17:43:23.206Z,92.50
2022-11-02T17:46:00.656Z,92.50
2022-11-02T17:48:31.236Z,92.60
2022-11-02T17:51:02.250Z,92.60
2022-11-02T17:53:29.162Z,92.70
2022-11-02T17:55:56.475Z,92.70
2022-11-02T17:58:23.366Z,92.70
2022-11-02T18:00:52.190Z,92.80
2022-11-02T18:03:22.362Z,92.80
2022-11-02T18:05:53.566Z,92.80
2022-11-02T18:08:24.196Z,92.80
2022-11-02T18:10:52.297Z,92.90
2022-11-02T18:13:22.726Z,92.90
2022-11-02T18:15:50.029Z,93.00
2022-11-02T18:18:16.909Z,93.00
2022-11-02T18:20:43.816Z,93.10
2022-11-02T18:23:16.739Z,93.00
2022-11-02T18:25:43.722Z,93.10
2022-11-02T18:28:10.638Z,93.00
2022-11-02T18:30:42.078Z,93.10
2022-11-02T18:33:13.421Z,93.10
2022-11-02T18:35:42.145Z,93.10
2022-11-02T18:38:09.026Z,93.20
2022-11-02T18:40:36.096Z,93.20
2022-11-02T18:43:03.474Z,93.30
2022-11-02T18:45:30.681Z,93.30
2022-11-02T18:47:57.579Z,93.40
2022-11-02T18:50:24.501Z,93.40
2022-11-02T18:52:51.660Z,93.30
2022-11-02T18:55:18.636Z,93.50
2022-11-02T18:57:45.814Z,93.50
2022-11-02T19:00:13.870Z,93.60
2022-11-02T19:02:41.089Z,93.70
2022-11-02T19:05:28.338Z,93.80
2022-11-02T19:08:13.493Z,93.80
2022-11-02T19:10:41.253Z,93.80
2022-11-02T19:13:08.349Z,93.80
2022-11-02T19:15:38.501Z,93.80
2022-11-02T19:18:09.167Z,93.90
2022-11-02T19:20:36.079Z,94.10
2022-11-02T19:23:03.004Z,94.10
2022-11-02T19:25:29.891Z,94.30
2022-11-02T19:27:56.855Z,94.20
2022-11-02T19:30:23.746Z,94.30
2022-11-02T19:32:50.643Z,94.30
2022-11-02T19:35:17.539Z,94.30
2022-11-02T19:37:44.416Z,94.30
2022-11-02T19:40:11.751Z,94.30
2022-11-02T19:42:39.731Z,94.30
2022-11-02T19:45:07.063Z,94.30
2022-11-02T19:47:34.496Z,94.20
2022-11-02T19:50:01.375Z,94.30
2022-11-02T19:52:28.234Z,94.40
2022-11-02T19:54:55.118Z,94.40
2022-11-02T19:57:21.991Z,94.40
2022-11-02T19:59:48.868Z,94.40
2022-11-02T20:02:16.012Z,94.40
2022-11-02T20:04:44.258Z,94.40
2022-11-02T20:07:11.138Z,94.40
2022-11-02T20:09:38.790Z,94.50
2022-11-02T20:12:07.519Z,94.50
2022-11-02T20:14:36.296Z,94.60
2022-11-02T20:17:29.665Z,94.60
2022-11-02T20:19:50.067Z,94.50
2022-11-02T20:22:18.401Z,94.60
2022-11-02T20:24:45.335Z,94.60
2022-11-02T20:27:13.897Z,94.60
2022-11-02T20:29:40.882Z,94.70
2022-11-02T20:32:10.210Z,94.70
2022-11-02T20:34:37.273Z,94.70
2022-11-02T20:37:05.063Z,94.70
2022-11-02T20:39:31.939Z,94.80
2022-11-02T20:41:58.820Z,94.70
2022-11-02T20:44:25.755Z,94.60
2022-11-02T20:46:53.557Z,94.60
2022-11-02T20:49:36.437Z,94.60
2022-11-02T20:52:08.798Z,94.60
2022-11-02T20:54:35.854Z,94.50
2022-11-02T20:57:02.773Z,94.40
2022-11-02T20:59:29.646Z,94.40
2022-11-02T21:01:56.617Z,94.40
2022-11-02T21:04:23.662Z,94.40
2022-11-02T21:06:50.814Z,94.30
2022-11-02T21:09:18.792Z,94.30
2022-11-02T21:12:04.619Z,94.30
2022-11-02T21:14:31.666Z,94.30
2022-11-02T21:16:58.744Z,94.30
2022-11-02T21:19:25.634Z,94.30
2022-11-02T21:21:58.103Z,94.40
2022-11-02T21:24:26.537Z,94.40
2022-11-02T21:26:53.396Z,94.40
2022-11-02T21:29:21.180Z,94.40
2022-11-02T21:31:48.179Z,94.50
2022-11-02T21:34:15.066Z,94.50
2022-11-02T21:36:41.930Z,94.50
2022-11-02T21:39:08.819Z,94.40
2022-11-02T21:41:36.683Z,94.40
2022-11-02T21:44:03.755Z,94.50
2022-11-02T21:46:30.658Z,94.50
2022-11-02T21:48:57.556Z,94.50
2022-11-02T21:51:24.512Z,94.50
2022-11-02T21:53:51.875Z,94.50
2022-11-02T21:56:25.587Z,94.40
2022-11-02T21:58:54.562Z,94.40
2022-11-02T22:01:45.162Z,94.40
2022-11-02T22:04:31.759Z,94.40
2022-11-02T22:07:00.478Z,94.40
2022-11-02T22:09:28.595Z,94.40
2022-11-02T22:12:14.943Z,94.40
2022-11-02T22:14:43.929Z,94.40
2022-11-02T22:17:22.058Z,94.40
2022-11-02T22:19:58.558Z,94.40
2022-11-02T22:22:25.470Z,94.40
2022-11-02T22:24:52.326Z,94.40
2022-11-02T22:27:19.209Z,94.40
2022-11-02T22:29:46.142Z,94.40
2022-11-02T22:32:14.569Z,94.30
2022-11-02T22:34:43.462Z,94.20
2022-11-02T22:37:28.775Z,94.20
2022-11-02T22:39:55.683Z,94.10
2022-11-02T22:42:22.564Z,94.10
2022-11-02T22:44:49.434Z,94.10
2022-11-02T22:47:16.394Z,94.00
2022-11-02T22:49:43.249Z,94.00
2022-11-02T22:52:10.169Z,94.00
2022-11-02T22:54:37.091Z,94.00
2022-11-02T22:57:04.133Z,94.00
2022-11-02T22:59:31.017Z,94.00
2022-11-02T23:01:57.960Z,94.00
2022-11-02T23:04:24.946Z,94.00
2022-11-02T23:06:51.817Z,94.00
2022-11-02T23:09:18.723Z,94.00
2022-11-02T23:11:45.580Z,94.00
2022-11-02T23:14:15.111Z,94.00
2022-11-02T23:16:47.016Z,94.00
2022-11-02T23:19:27.170Z,94.00
2022-11-02T23:22:17.617Z,94.00
2022-11-02T23:25:11.005Z,94.00
2022-11-02T23:28:04.538Z,94.00
2022-11-02T23:30:53.886Z,94.00
2022-11-02T23:33:22.227Z,94.00
2022-11-02T23:36:08.088Z,94.00
2022-11-02T23:38:53.655Z,94.00
2022-11-02T23:41:20.535Z,94.00
2022-11-02T23:43:48.376Z,94.00
2022-11-02T23:46:15.748Z,94.10
2022-11-02T23:48:45.016Z,94.00
2022-11-02T23:51:32.366Z,94.00
2022-11-02T23:54:17.908Z,94.00
2022-11-02T23:56:44.994Z,94.00
2022-11-02T23:59:17.336Z,94.10
